Main page
METAR-TAF:

METAR-TAF

Airports :

Barbacena, Minas Gerais, Brazil

latitude: 21-15S, longitude: 043-46W, elevation: 1171 m

Current weather observation

The report was made 1 hour and 14 minutes ago, at 22:00 UTC
Wind 4 kt from the North
Temperature 19°C
Humidity 88%
Pressure 1022 hPa
Visibility: 5000 m
Scattered clouds at a height of 2000 ft
Broken clouds at a height of 10000 ft
mist

METAR: SBBQ 202200Z 01004KT 5000 BR SCT020 BKN100 19/17 Q1022

Time: 20:14 (23:14 UTC)


TAF: missing

Weather observations and forecasts of more than 4000 airports (METAR and TAF reports).

The available stations are represented by yellow and red dots on the map.

Hover mouse over dot to see the name of the station.

Then click to see weather observations and forecasts.

To change the map : click on the green buttons with a black cross to zoom in, on the green button with a dash to zoom out, or on the green arrows for adjacent maps.


METAR-TAF: